YSSY/SYD METAR and TAF weather

Enter ICAO airport designator
Station Type Date Time Source
YSSY METAR 2020/07/11 19:30 UTC NOAA

YSSY 111930Z 35007KT 9999 FEW012 SCT260 09/09 Q1015 FM2030 32007KT 0500 FG SCT001


Station Type Date Time Source
YSSY Decoded METAR 2020/07/11 19:30 UTC NOAA

Sydney Airport, Australia (YSSY) 33-57S 151-11E 3M
Jul 11, 2020 - 03:30 PM EDT / 2020.07.11 1930 UTC
Wind: from the N (350 degrees) at 8 MPH (7 KT):0
Visibility: greater than 7 mile(s):0
Sky conditions: partly cloudy
Temperature: 48 F (9 C)
Dew Point: 48 F (9 C)
Relative Humidity: 100%
Pressure (altimeter): 29.97 in. Hg (1015 hPa)
ob: YSSY 111930Z 35007KT 9999 FEW012 SCT260 09/09 Q1015 FM2030 32007KT 0500 FG SCT001
cycle: 19

Station Type Date Time Source
YSSY TAF 2020/07/11 18:38 UTC NOAA

TAF YSSY 111705Z 1118/1300 30006KT 0500 FG SCT001
FM112300 30006KT 8000 HZ SCT005
FM120200 11008KT 9999 NSW SCT025
FM120900 29005KT 9999 -SHRA SCT018 BKN030
TEMPO 1212/1218 3000 RA BKN008 PROB30
TEMPO 1209/1216 VRB15G25KT 2000 TSRA BKN010 FEW025CB

Example: see airport list